createdAt,value
2023-01-08T00:00:48.871Z,25.25
2023-01-08T00:03:51.469Z,24.17
2023-01-08T00:06:53.907Z,23.52
2023-01-08T00:09:56.503Z,24.02
2023-01-08T00:12:58.633Z,24.80
2023-01-08T00:16:06.463Z,25.10
2023-01-08T00:19:08.866Z,23.95
2023-01-08T00:22:11.500Z,24.33
2023-01-08T00:25:13.833Z,24.20
2023-01-08T00:28:17.017Z,24.45
2023-01-08T00:31:19.253Z,22.85
2023-01-08T00:34:21.793Z,23.62
2023-01-08T00:37:24.084Z,24.37
2023-01-08T00:40:26.704Z,24.37
2023-01-08T00:43:28.877Z,24.70
2023-01-08T00:46:31.340Z,22.65
2023-01-08T00:49:33.460Z,22.50
2023-01-08T00:52:35.978Z,23.83
2023-01-08T00:55:38.115Z,22.35
2023-01-08T00:58:40.574Z,23.25
2023-01-08T01:01:42.804Z,23.65
2023-01-08T01:04:45.311Z,24.52
2023-01-08T01:07:47.925Z,21.85
2023-01-08T01:10:50.502Z,23.25
2023-01-08T01:13:54.290Z,23.85
2023-01-08T01:16:56.844Z,22.92
2023-01-08T01:19:59.162Z,23.23
2023-01-08T01:23:01.700Z,21.65
2023-01-08T01:26:04.042Z,23.25
2023-01-08T01:29:06.700Z,21.92
2023-01-08T01:32:09.117Z,19.98
2023-01-08T01:35:11.752Z,21.77
2023-01-08T01:38:14.575Z,21.50
2023-01-08T01:41:29.709Z,21.05
2023-01-08T01:44:34.782Z,23.20
2023-01-08T01:47:40.221Z,22.35
2023-01-08T01:50:44.114Z,23.05
2023-01-08T01:53:46.687Z,21.45
2023-01-08T01:56:49.743Z,20.90
2023-01-08T01:59:54.829Z,22.65
2023-01-08T02:02:57.237Z,23.60
2023-01-08T02:06:15.085Z,22.27
2023-01-08T02:09:50.525Z,22.60
2023-01-08T02:13:06.634Z,22.87
2023-01-08T02:16:12.744Z,22.70
2023-01-08T02:19:39.295Z,23.20
2023-01-08T02:22:54.156Z,21.77
2023-01-08T02:26:15.170Z,22.80
2023-01-08T02:29:23.902Z,20.90
2023-01-08T02:32:27.709Z,21.37
2023-01-08T02:35:38.600Z,20.37
2023-01-08T02:38:59.497Z,21.52
2023-01-08T02:42:09.206Z,21.75
2023-01-08T02:45:28.165Z,22.17
2023-01-08T02:48:41.893Z,19.92
2023-01-08T02:51:55.962Z,21.62
2023-01-08T02:55:03.079Z,20.70
2023-01-08T02:58:05.970Z,20.20
2023-01-08T03:01:13.229Z,19.85
2023-01-08T03:04:22.150Z,20.70
2023-01-08T03:10:30.318Z,18.55
2023-01-08T03:13:54.891Z,21.27
2023-01-08T03:17:20.743Z,20.17
2023-01-08T03:20:25.235Z,19.30
2023-01-08T03:23:28.928Z,20.02
2023-01-08T03:26:33.341Z,19.60
2023-01-08T03:29:37.993Z,19.52
2023-01-08T03:32:42.027Z,18.35
2023-01-08T03:35:47.192Z,20.12
2023-01-08T03:38:59.648Z,20.17
2023-01-08T03:42:07.780Z,20.60
2023-01-08T03:45:10.439Z,19.80
2023-01-08T03:48:12.899Z,21.20
2023-01-08T03:51:15.367Z,20.55
2023-01-08T03:54:23.656Z,19.87
2023-01-08T03:57:26.213Z,20.75
2023-01-08T04:00:28.392Z,19.40
2023-01-08T04:03:30.889Z,20.67
2023-01-08T04:06:33.174Z,21.20
2023-01-08T04:09:35.609Z,20.65
2023-01-08T04:12:37.761Z,21.83
2023-01-08T04:15:40.253Z,22.87
2023-01-08T04:18:42.568Z,21.17
2023-01-08T04:21:45.071Z,21.62
2023-01-08T04:24:47.389Z,22.05
2023-01-08T04:27:49.858Z,21.95
2023-01-08T04:30:52.048Z,21.42
2023-01-08T04:33:54.534Z,23.33
2023-01-08T04:36:56.743Z,23.48
2023-01-08T04:39:59.199Z,23.00
2023-01-08T04:43:02.553Z,21.83
2023-01-08T04:46:07.718Z,21.48
2023-01-08T04:49:11.235Z,21.08
2023-01-08T04:52:13.759Z,20.08
2023-01-08T04:55:16.019Z,19.60
2023-01-08T04:58:18.559Z,20.50
2023-01-08T05:01:23.363Z,20.27
2023-01-08T05:04:25.928Z,19.42
2023-01-08T05:07:28.089Z,19.67
2023-01-08T05:10:30.973Z,20.27
2023-01-08T05:13:33.173Z,19.83
2023-01-08T05:16:35.646Z,22.25
2023-01-08T05:19:38.471Z,19.52
2023-01-08T05:22:41.093Z,20.08
2023-01-08T05:25:43.232Z,23.67
2023-01-08T05:28:45.850Z,22.10
2023-01-08T05:31:48.011Z,22.00
2023-01-08T05:34:50.587Z,21.25
2023-01-08T05:37:52.743Z,23.75
2023-01-08T05:40:55.290Z,22.98
2023-01-08T05:43:57.487Z,22.17
2023-01-08T05:47:00.133Z,22.05
2023-01-08T05:50:02.667Z,20.85
2023-01-08T05:53:09.224Z,20.62
2023-01-08T05:56:11.949Z,20.98
2023-01-08T05:59:14.679Z,20.42
2023-01-08T06:02:17.087Z,19.90
2023-01-08T06:05:19.589Z,20.45
2023-01-08T06:08:21.771Z,20.73
2023-01-08T06:11:24.379Z,21.30
2023-01-08T06:14:26.669Z,20.42
2023-01-08T06:17:29.114Z,20.27
2023-01-08T06:20:31.364Z,18.30
2023-01-08T06:23:34.393Z,20.30
2023-01-08T06:26:36.557Z,19.90
2023-01-08T06:29:39.078Z,19.37
2023-01-08T06:32:41.197Z,19.50
2023-01-08T06:35:43.834Z,19.80
2023-01-08T06:38:45.993Z,21.17
2023-01-08T06:41:48.546Z,19.75
2023-01-08T06:44:50.712Z,20.33
2023-01-08T06:47:53.148Z,20.27
2023-01-08T06:50:56.282Z,20.60
2023-01-08T06:53:58.789Z,19.90
2023-01-08T06:57:00.980Z,19.90
2023-01-08T07:00:04.292Z,21.25
2023-01-08T07:03:06.936Z,19.90
2023-01-08T07:06:16.580Z,18.83
2023-01-08T07:09:18.851Z,20.58
2023-01-08T07:12:21.306Z,20.20
2023-01-08T07:15:23.678Z,20.90
2023-01-08T07:18:26.137Z,20.92
2023-01-08T07:21:28.367Z,21.00
2023-01-08T07:24:30.827Z,20.08
2023-01-08T07:27:33.266Z,19.12
2023-01-08T07:30:35.830Z,20.77
2023-01-08T07:33:38.189Z,20.42
2023-01-08T07:36:40.686Z,22.02
2023-01-08T07:39:42.901Z,21.52
2023-01-08T07:42:45.342Z,21.12
2023-01-08T07:45:47.474Z,20.35
2023-01-08T07:48:49.910Z,20.40
2023-01-08T07:51:52.070Z,19.30
2023-01-08T07:54:54.581Z,21.25
2023-01-08T07:57:56.724Z,22.13
2023-01-08T08:00:59.656Z,21.23
2023-01-08T08:04:02.197Z,19.83
2023-01-08T08:07:04.478Z,20.40
2023-01-08T08:10:07.099Z,20.85
2023-01-08T08:13:10.053Z,20.80
2023-01-08T08:16:13.274Z,20.42
2023-01-08T08:19:15.974Z,20.98
2023-01-08T08:22:18.656Z,20.00
2023-01-08T08:25:20.883Z,19.70
2023-01-08T08:28:23.505Z,20.65
2023-01-08T08:31:25.850Z,20.52
2023-01-08T08:34:28.366Z,20.27
2023-01-08T08:37:30.658Z,18.80
2023-01-08T08:40:33.282Z,19.20
2023-01-08T08:43:35.496Z,19.23
2023-01-08T08:46:38.004Z,19.50
2023-01-08T08:49:40.345Z,17.20
2023-01-08T08:52:44.897Z,16.77
2023-01-08T08:55:47.153Z,19.90
2023-01-08T08:58:51.859Z,18.55
2023-01-08T09:01:54.126Z,19.75
2023-01-08T09:04:56.692Z,19.73
2023-01-08T09:07:58.976Z,18.60
2023-01-08T09:11:02.903Z,19.02
2023-01-08T09:14:05.124Z,17.73
2023-01-08T09:17:07.797Z,17.85
2023-01-08T09:20:11.077Z,18.27
2023-01-08T09:23:13.523Z,17.80
2023-01-08T09:26:16.043Z,17.02
2023-01-08T09:29:18.487Z,17.45
2023-01-08T09:32:20.666Z,17.73
2023-01-08T09:35:23.096Z,18.48
2023-01-08T09:38:25.330Z,18.85
2023-01-08T09:41:31.348Z,17.73
2023-01-08T09:44:40.349Z,18.00
2023-01-08T09:47:43.952Z,17.15
2023-01-08T09:50:48.026Z,17.50
2023-01-08T09:53:55.512Z,17.23
2023-01-08T09:56:59.651Z,17.55
2023-01-08T10:00:02.258Z,17.48
2023-01-08T10:03:12.095Z,16.83
2023-01-08T10:06:16.504Z,17.08
2023-01-08T10:09:24.369Z,17.80
2023-01-08T10:12:31.157Z,18.40
2023-01-08T10:15:33.449Z,17.75
2023-01-08T10:18:37.205Z,17.33
2023-01-08T10:21:40.720Z,17.08
2023-01-08T10:24:43.797Z,16.30
2023-01-08T10:27:59.431Z,16.62
2023-01-08T10:31:11.424Z,16.52
2023-01-08T10:34:24.503Z,18.33
2023-01-08T10:37:28.445Z,17.30
2023-01-08T10:40:51.987Z,17.30
2023-01-08T10:44:05.431Z,16.00
2023-01-08T10:47:16.657Z,17.10
2023-01-08T10:50:25.743Z,17.73
2023-01-08T10:56:42.224Z,16.73
2023-01-08T10:59:44.551Z,17.50
2023-01-08T11:02:50.419Z,16.95
2023-01-08T11:05:52.723Z,17.67
2023-01-08T11:08:58.951Z,17.70
2023-01-08T11:12:01.681Z,18.27
2023-01-08T11:15:07.230Z,17.60
2023-01-08T11:18:24.906Z,18.55
2023-01-08T11:21:32.900Z,17.25
2023-01-08T11:24:39.358Z,16.90
2023-01-08T11:27:44.703Z,17.27
2023-01-08T11:31:00.846Z,16.73
2023-01-08T11:34:16.631Z,18.62
2023-01-08T11:37:26.251Z,16.92
2023-01-08T11:40:33.484Z,16.58
2023-01-08T11:44:03.298Z,16.58
2023-01-08T11:50:40.960Z,18.12
2023-01-08T11:53:59.524Z,17.33
2023-01-08T11:57:39.252Z,18.52
2023-01-08T12:00:41.651Z,17.92
2023-01-08T12:03:52.946Z,19.40
2023-01-08T12:07:18.034Z,19.80
2023-01-08T12:10:25.211Z,18.52
2023-01-08T12:13:58.917Z,18.70
2023-01-08T12:17:19.591Z,19.02
2023-01-08T12:20:29.200Z,19.17
2023-01-08T12:24:13.616Z,18.10
2023-01-08T12:27:48.594Z,18.08
2023-01-08T12:30:54.593Z,18.12
2023-01-08T12:34:09.579Z,17.27
2023-01-08T12:37:20.722Z,19.48
2023-01-08T12:40:40.962Z,18.90
2023-01-08T12:44:03.174Z,19.00
2023-01-08T12:47:07.174Z,17.92
2023-01-08T12:50:28.013Z,18.00
2023-01-08T12:53:54.040Z,18.55
2023-01-08T12:57:03.306Z,16.42
2023-01-08T13:00:19.864Z,17.45
2023-01-08T13:03:27.172Z,17.23
2023-01-08T13:06:29.497Z,16.25
2023-01-08T13:09:32.992Z,17.12
2023-01-08T13:12:40.907Z,19.50
2023-01-08T13:15:43.705Z,17.00
2023-01-08T13:18:59.104Z,18.77
2023-01-08T13:22:02.200Z,18.95
2023-01-08T13:25:13.366Z,16.95
2023-01-08T13:28:45.552Z,17.67
2023-01-08T13:31:47.772Z,17.02
2023-01-08T13:35:01.797Z,17.65
2023-01-08T13:38:09.804Z,17.92
2023-01-08T13:41:26.256Z,18.20
2023-01-08T13:44:32.095Z,16.58
2023-01-08T13:47:36.970Z,17.73
2023-01-08T13:50:39.333Z,16.55
2023-01-08T13:53:42.387Z,16.83
2023-01-08T13:56:48.680Z,15.98
2023-01-08T13:59:57.315Z,19.60
2023-01-08T14:02:59.622Z,20.23
2023-01-08T14:06:16.828Z,19.27
2023-01-08T14:09:24.425Z,17.87
2023-01-08T14:12:27.824Z,19.63
2023-01-08T14:15:30.385Z,18.80
2023-01-08T14:18:33.208Z,18.70
2023-01-08T14:21:35.438Z,19.85
2023-01-08T14:24:37.967Z,19.15
2023-01-08T14:27:40.132Z,18.48
2023-01-08T14:30:48.986Z,20.10
2023-01-08T14:33:53.291Z,19.67
2023-01-08T14:36:56.558Z,19.70
2023-01-08T14:39:58.843Z,20.27
2023-01-08T14:43:14.275Z,19.37
2023-01-08T14:46:25.170Z,20.10
2023-01-08T14:49:31.111Z,20.85
2023-01-08T14:52:34.989Z,19.92
2023-01-08T14:55:46.535Z,22.08
2023-01-08T14:58:49.210Z,19.33
2023-01-08T15:01:55.330Z,22.02
2023-01-08T15:05:14.186Z,22.50
2023-01-08T15:08:37.611Z,22.77
2023-01-08T15:11:53.033Z,22.65
2023-01-08T15:14:55.610Z,23.83
2023-01-08T15:17:57.991Z,22.73
2023-01-08T15:21:00.564Z,24.08
2023-01-08T15:24:04.857Z,23.42
2023-01-08T15:27:10.642Z,22.30
2023-01-08T15:30:34.918Z,24.30
2023-01-08T15:33:37.391Z,24.65
2023-01-08T15:36:39.621Z,26.25
2023-01-08T15:39:42.909Z,25.20
2023-01-08T15:43:03.518Z,25.08
2023-01-08T15:46:11.030Z,24.85
2023-01-08T15:49:13.285Z,26.98
2023-01-08T15:52:19.190Z,26.85
2023-01-08T15:55:23.768Z,25.52
2023-01-08T15:58:26.343Z,26.48
2023-01-08T16:01:28.893Z,27.55
2023-01-08T16:04:31.451Z,26.40
2023-01-08T16:07:33.653Z,26.37
2023-01-08T16:10:36.227Z,25.75
2023-01-08T16:13:38.545Z,26.05
2023-01-08T16:16:41.177Z,27.45
2023-01-08T16:19:43.379Z,27.73
2023-01-08T16:22:46.024Z,29.45
2023-01-08T16:25:48.290Z,26.62
2023-01-08T16:28:50.753Z,27.73
2023-01-08T16:31:53.121Z,26.02
2023-01-08T16:34:55.778Z,26.98
2023-01-08T16:37:58.126Z,25.75
2023-01-08T16:41:00.857Z,29.52
2023-01-08T16:44:03.203Z,27.58
2023-01-08T16:47:05.783Z,27.40
2023-01-08T16:50:10.544Z,26.87
2023-01-08T16:53:13.856Z,26.58
2023-01-08T16:56:15.990Z,26.37
2023-01-08T16:59:23.572Z,26.48
2023-01-08T17:02:26.205Z,27.73
2023-01-08T17:05:32.269Z,25.83
2023-01-08T17:08:39.787Z,27.95
2023-01-08T17:11:42.998Z,26.83
2023-01-08T17:14:46.365Z,25.35
2023-01-08T17:17:50.149Z,28.08
2023-01-08T17:20:53.712Z,27.70
2023-01-08T17:23:56.184Z,27.23
2023-01-08T17:26:58.473Z,26.85
2023-01-08T17:30:01.015Z,26.87
2023-01-08T17:33:03.667Z,27.15
2023-01-08T17:36:23.425Z,25.83
2023-01-08T17:42:31.081Z,25.67
2023-01-08T17:45:33.383Z,26.75
2023-01-08T17:48:36.164Z,25.62
2023-01-08T17:51:40.627Z,25.27
2023-01-08T17:54:44.243Z,26.23
2023-01-08T17:57:46.513Z,26.35
2023-01-08T18:00:48.958Z,26.73
2023-01-08T18:03:52.254Z,25.98
2023-01-08T18:06:54.630Z,27.23
2023-01-08T18:09:57.727Z,26.48
2023-01-08T18:12:59.954Z,26.10
2023-01-08T18:16:07.531Z,26.10
2023-01-08T18:19:09.755Z,26.50
2023-01-08T18:22:12.280Z,26.45
2023-01-08T18:25:14.678Z,26.90
2023-01-08T18:28:17.194Z,26.10
2023-01-08T18:31:19.394Z,24.65
2023-01-08T18:34:21.879Z,25.62
2023-01-08T18:37:24.906Z,25.92
2023-01-08T18:40:27.438Z,24.67
2023-01-08T18:43:31.465Z,25.62
2023-01-08T18:46:34.270Z,24.40
2023-01-08T18:49:36.481Z,24.23
2023-01-08T18:52:40.254Z,25.23
2023-01-08T18:55:42.535Z,24.23
2023-01-08T18:58:45.056Z,22.58
2023-01-08T19:01:47.371Z,24.33
2023-01-08T19:04:50.527Z,22.48
2023-01-08T19:07:52.757Z,14.25
2023-01-08T19:10:55.247Z,10.55
2023-01-08T19:13:57.650Z,10.32
2023-01-08T19:17:00.140Z,10.65
2023-01-08T19:20:03.509Z,10.30
2023-01-08T19:23:06.889Z,10.35
2023-01-08T19:26:09.666Z,9.85
2023-01-08T19:29:12.160Z,10.90
2023-01-08T19:32:14.352Z,11.20
2023-01-08T19:35:16.837Z,11.43
2023-01-08T19:38:20.488Z,10.57
2023-01-08T19:41:41.703Z,11.80
2023-01-08T19:44:44.299Z,11.35
2023-01-08T19:47:46.952Z,11.30
2023-01-08T19:50:49.938Z,10.77
2023-01-08T19:53:53.645Z,11.25
2023-01-08T19:56:55.841Z,10.88
2023-01-08T19:59:58.509Z,10.48
2023-01-08T20:03:00.749Z,11.07
2023-01-08T20:06:08.375Z,11.32
2023-01-08T20:09:10.641Z,11.02
2023-01-08T20:12:14.002Z,10.98
2023-01-08T20:15:19.202Z,11.32
2023-01-08T20:18:21.629Z,10.65
2023-01-08T20:21:24.322Z,11.05
2023-01-08T20:24:26.928Z,11.55
2023-01-08T20:27:29.226Z,11.07
2023-01-08T20:30:31.680Z,11.27
2023-01-08T20:33:35.447Z,11.15
2023-01-08T20:36:41.812Z,10.93
2023-01-08T20:39:44.015Z,11.57
2023-01-08T20:42:46.753Z,10.30
2023-01-08T20:45:49.284Z,11.48
2023-01-08T20:48:51.855Z,11.77
2023-01-08T20:51:59.148Z,11.52
2023-01-08T20:55:02.812Z,11.07
2023-01-08T20:58:05.176Z,12.00
2023-01-08T21:01:09.479Z,11.70
2023-01-08T21:04:12.206Z,11.55
2023-01-08T21:07:15.259Z,11.63
2023-01-08T21:10:17.602Z,11.50
2023-01-08T21:13:20.486Z,11.10
2023-01-08T21:16:28.760Z,11.63
2023-01-08T21:19:31.281Z,11.50
2023-01-08T21:22:34.157Z,11.82
2023-01-08T21:25:36.622Z,12.10
2023-01-08T21:28:40.330Z,11.65
2023-01-08T21:31:43.183Z,12.30
2023-01-08T21:34:45.951Z,12.65
2023-01-08T21:37:48.545Z,12.70
2023-01-08T21:40:59.511Z,12.15
2023-01-08T21:44:22.252Z,12.70
2023-01-08T21:47:28.388Z,12.30
2023-01-08T21:50:30.973Z,12.10
2023-01-08T21:53:36.194Z,11.88
2023-01-08T21:56:40.036Z,12.37
2023-01-08T21:59:42.794Z,12.70
2023-01-08T22:02:46.682Z,12.32
2023-01-08T22:06:03.607Z,12.15
2023-01-08T22:09:05.802Z,12.85
2023-01-08T22:12:08.616Z,11.40
2023-01-08T22:15:11.485Z,12.73
2023-01-08T22:18:14.112Z,13.73
2023-01-08T22:21:16.420Z,13.77
2023-01-08T22:24:18.899Z,13.25
2023-01-08T22:27:21.568Z,12.90
2023-01-08T22:30:24.070Z,13.45
2023-01-08T22:33:26.338Z,13.55
2023-01-08T22:36:28.957Z,13.65
2023-01-08T22:39:31.307Z,12.63
2023-01-08T22:42:33.800Z,13.52
2023-01-08T22:45:36.098Z,12.88
2023-01-08T22:48:38.937Z,12.77
2023-01-08T22:51:44.542Z,12.60
2023-01-08T22:54:47.075Z,13.80
2023-01-08T22:57:52.041Z,13.23
2023-01-08T23:00:57.279Z,12.45
2023-01-08T23:04:00.872Z,13.57
2023-01-08T23:07:03.415Z,13.95
2023-01-08T23:10:06.527Z,12.88
2023-01-08T23:13:09.008Z,13.40
2023-01-08T23:16:14.419Z,12.88
2023-01-08T23:19:16.963Z,12.95
2023-01-08T23:22:19.156Z,13.27
2023-01-08T23:25:21.633Z,13.45
2023-01-08T23:28:23.895Z,12.40
2023-01-08T23:31:28.479Z,12.45
2023-01-08T23:34:30.821Z,13.98
2023-01-08T23:37:34.289Z,12.77
2023-01-08T23:40:36.616Z,14.05
2023-01-08T23:43:39.140Z,14.85
2023-01-08T23:46:41.884Z,14.52
2023-01-08T23:49:44.345Z,13.40
2023-01-08T23:52:46.528Z,14.05
2023-01-08T23:55:49.296Z,14.65
2023-01-08T23:58:51.551Z,13.52
